sensor_id;sensor_type;location;lat;lon;timestamp;temperature;humidity
76211;DHT22;65003;49.518;11.280;2022-11-20T00:01:05;2.40;82.30
76211;DHT22;65003;49.518;11.280;2022-11-20T00:03:31;2.50;82.20
76211;DHT22;65003;49.518;11.280;2022-11-20T00:06:00;2.60;82.10
76211;DHT22;65003;49.518;11.280;2022-11-20T00:08:26;2.70;81.30
76211;DHT22;65003;49.518;11.280;2022-11-20T00:10:52;2.80;80.40
76211;DHT22;65003;49.518;11.280;2022-11-20T00:13:19;2.70;80.00
76211;DHT22;65003;49.518;11.280;2022-11-20T00:15:45;2.70;81.20
76211;DHT22;65003;49.518;11.280;2022-11-20T00:18:12;2.60;81.50
76211;DHT22;65003;49.518;11.280;2022-11-20T00:20:38;2.50;81.90
76211;DHT22;65003;49.518;11.280;2022-11-20T00:23:05;2.40;82.00
76211;DHT22;65003;49.518;11.280;2022-11-20T00:25:33;2.20;83.20
76211;DHT22;65003;49.518;11.280;2022-11-20T00:27:58;2.20;83.10
76211;DHT22;65003;49.518;11.280;2022-11-20T00:30:25;2.10;83.60
76211;DHT22;65003;49.518;11.280;2022-11-20T00:32:51;2.10;83.80
76211;DHT22;65003;49.518;11.280;2022-11-20T00:35:18;2.10;83.50
76211;DHT22;65003;49.518;11.280;2022-11-20T00:37:45;2.10;83.80
76211;DHT22;65003;49.518;11.280;2022-11-20T00:40:11;2.20;83.70
76211;DHT22;65003;49.518;11.280;2022-11-20T00:42:38;2.20;83.30
76211;DHT22;65003;49.518;11.280;2022-11-20T00:45:05;2.30;83.50
76211;DHT22;65003;49.518;11.280;2022-11-20T00:47:32;2.30;83.30
76211;DHT22;65003;49.518;11.280;2022-11-20T00:49:59;2.40;83.10
76211;DHT22;65003;49.518;11.280;2022-11-20T00:52:25;2.30;82.90
76211;DHT22;65003;49.518;11.280;2022-11-20T00:54:51;2.30;83.30
76211;DHT22;65003;49.518;11.280;2022-11-20T00:57:18;2.30;83.50
76211;DHT22;65003;49.518;11.280;2022-11-20T00:59:45;2.30;83.10
76211;DHT22;65003;49.518;11.280;2022-11-20T01:02:11;2.40;82.90
76211;DHT22;65003;49.518;11.280;2022-11-20T01:04:38;2.50;82.20
76211;DHT22;65003;49.518;11.280;2022-11-20T01:07:04;2.50;82.20
76211;DHT22;65003;49.518;11.280;2022-11-20T01:09:31;2.50;82.10
76211;DHT22;65003;49.518;11.280;2022-11-20T01:11:58;2.60;82.00
76211;DHT22;65003;49.518;11.280;2022-11-20T01:14:24;2.50;82.00
76211;DHT22;65003;49.518;11.280;2022-11-20T01:16:51;2.50;82.10
76211;DHT22;65003;49.518;11.280;2022-11-20T01:19:20;2.40;82.40
76211;DHT22;65003;49.518;11.280;2022-11-20T01:21:44;2.40;82.90
76211;DHT22;65003;49.518;11.280;2022-11-20T01:24:11;2.40;82.70
76211;DHT22;65003;49.518;11.280;2022-11-20T01:26:38;2.50;82.70
76211;DHT22;65003;49.518;11.280;2022-11-20T01:29:04;2.60;82.20
76211;DHT22;65003;49.518;11.280;2022-11-20T01:31:34;2.70;82.10
76211;DHT22;65003;49.518;11.280;2022-11-20T01:34:01;2.70;82.00
76211;DHT22;65003;49.518;11.280;2022-11-20T01:36:27;2.70;81.70
76211;DHT22;65003;49.518;11.280;2022-11-20T01:38:53;2.80;81.90
76211;DHT22;65003;49.518;11.280;2022-11-20T01:41:20;2.90;81.10
76211;DHT22;65003;49.518;11.280;2022-11-20T01:43:52;2.80;81.00
76211;DHT22;65003;49.518;11.280;2022-11-20T01:46:18;2.80;81.40
76211;DHT22;65003;49.518;11.280;2022-11-20T01:48:48;2.80;81.50
76211;DHT22;65003;49.518;11.280;2022-11-20T01:51:15;2.80;81.20
76211;DHT22;65003;49.518;11.280;2022-11-20T01:53:39;2.80;81.70
76211;DHT22;65003;49.518;11.280;2022-11-20T01:56:06;2.70;81.50
76211;DHT22;65003;49.518;11.280;2022-11-20T01:58:33;2.70;82.30
76211;DHT22;65003;49.518;11.280;2022-11-20T02:00:59;2.80;81.90
76211;DHT22;65003;49.518;11.280;2022-11-20T02:03:25;2.80;81.40
76211;DHT22;65003;49.518;11.280;2022-11-20T02:05:56;2.90;81.20
76211;DHT22;65003;49.518;11.280;2022-11-20T02:08:21;2.90;81.30
76211;DHT22;65003;49.518;11.280;2022-11-20T02:10:48;2.80;82.10
76211;DHT22;65003;49.518;11.280;2022-11-20T02:13:14;2.80;82.30
76211;DHT22;65003;49.518;11.280;2022-11-20T02:15:47;2.80;82.20
76211;DHT22;65003;49.518;11.280;2022-11-20T02:18:15;2.70;82.70
76211;DHT22;65003;49.518;11.280;2022-11-20T02:20:42;2.70;82.60
76211;DHT22;65003;49.518;11.280;2022-11-20T02:23:12;3.70;83.40
76211;DHT22;65003;49.518;11.280;2022-11-20T02:25:39;2.80;82.90
76211;DHT22;65003;49.518;11.280;2022-11-20T02:28:05;2.90;82.30
76211;DHT22;65003;49.518;11.280;2022-11-20T02:30:32;3.00;81.40
76211;DHT22;65003;49.518;11.280;2022-11-20T02:32:58;2.90;81.20
76211;DHT22;65003;49.518;11.280;2022-11-20T02:35:41;2.80;81.70
76211;DHT22;65003;49.518;11.280;2022-11-20T02:38:06;2.70;82.80
76211;DHT22;65003;49.518;11.280;2022-11-20T02:40:33;2.70;82.70
76211;DHT22;65003;49.518;11.280;2022-11-20T02:43:00;2.70;82.60
76211;DHT22;65003;49.518;11.280;2022-11-20T02:45:26;2.80;82.10
76211;DHT22;65003;49.518;11.280;2022-11-20T02:47:53;2.80;82.50
76211;DHT22;65003;49.518;11.280;2022-11-20T02:50:19;2.80;82.40
76211;DHT22;65003;49.518;11.280;2022-11-20T02:52:46;2.90;82.20
76211;DHT22;65003;49.518;11.280;2022-11-20T02:55:12;3.10;81.00
76211;DHT22;65003;49.518;11.280;2022-11-20T02:57:39;3.10;80.70
76211;DHT22;65003;49.518;11.280;2022-11-20T03:00:06;3.10;80.90
76211;DHT22;65003;49.518;11.280;2022-11-20T03:02:33;3.00;81.70
76211;DHT22;65003;49.518;11.280;2022-11-20T03:05:00;2.90;81.70
76211;DHT22;65003;49.518;11.280;2022-11-20T03:07:26;2.80;82.50
76211;DHT22;65003;49.518;11.280;2022-11-20T03:09:53;2.70;83.20
76211;DHT22;65003;49.518;11.280;2022-11-20T03:12:19;2.70;83.50
76211;DHT22;65003;49.518;11.280;2022-11-20T03:14:46;2.60;83.90
76211;DHT22;65003;49.518;11.280;2022-11-20T03:17:13;2.60;84.00
76211;DHT22;65003;49.518;11.280;2022-11-20T03:19:39;2.60;84.00
76211;DHT22;65003;49.518;11.280;2022-11-20T03:22:06;2.60;84.50
76211;DHT22;65003;49.518;11.280;2022-11-20T03:24:32;2.50;84.20
76211;DHT22;65003;49.518;11.280;2022-11-20T03:26:59;2.40;84.30
76211;DHT22;65003;49.518;11.280;2022-11-20T03:29:26;2.40;84.50
76211;DHT22;65003;49.518;11.280;2022-11-20T03:31:52;2.40;84.40
76211;DHT22;65003;49.518;11.280;2022-11-20T03:34:19;2.40;84.50
76211;DHT22;65003;49.518;11.280;2022-11-20T03:36:45;2.50;84.80
76211;DHT22;65003;49.518;11.280;2022-11-20T03:39:12;2.50;84.50
76211;DHT22;65003;49.518;11.280;2022-11-20T03:41:39;2.60;84.40
76211;DHT22;65003;49.518;11.280;2022-11-20T03:44:07;2.60;84.30
76211;DHT22;65003;49.518;11.280;2022-11-20T03:46:32;2.70;84.00
76211;DHT22;65003;49.518;11.280;2022-11-20T03:48:58;2.70;83.40
76211;DHT22;65003;49.518;11.280;2022-11-20T03:51:28;2.70;83.40
76211;DHT22;65003;49.518;11.280;2022-11-20T03:53:55;2.70;83.50
76211;DHT22;65003;49.518;11.280;2022-11-20T03:56:22;2.70;83.90
76211;DHT22;65003;49.518;11.280;2022-11-20T03:58:46;2.70;84.00
76211;DHT22;65003;49.518;11.280;2022-11-20T04:01:15;2.70;84.50
76211;DHT22;65003;49.518;11.280;2022-11-20T04:03:40;2.70;84.30
76211;DHT22;65003;49.518;11.280;2022-11-20T04:06:08;2.70;84.50
76211;DHT22;65003;49.518;11.280;2022-11-20T04:08:34;2.80;84.40
76211;DHT22;65003;49.518;11.280;2022-11-20T04:11:09;2.80;84.00
76211;DHT22;65003;49.518;11.280;2022-11-20T04:13:35;2.80;84.40
76211;DHT22;65003;49.518;11.280;2022-11-20T04:16:02;2.70;84.10
76211;DHT22;65003;49.518;11.280;2022-11-20T04:18:28;2.60;84.30
76211;DHT22;65003;49.518;11.280;2022-11-20T04:20:56;2.60;84.90
76211;DHT22;65003;49.518;11.280;2022-11-20T04:23:22;2.60;85.10
76211;DHT22;65003;49.518;11.280;2022-11-20T04:25:48;2.50;85.00
76211;DHT22;65003;49.518;11.280;2022-11-20T04:28:15;2.40;85.50
76211;DHT22;65003;49.518;11.280;2022-11-20T04:30:41;2.40;85.70
76211;DHT22;65003;49.518;11.280;2022-11-20T04:33:08;2.40;85.80
76211;DHT22;65003;49.518;11.280;2022-11-20T04:35:35;2.40;85.90
76211;DHT22;65003;49.518;11.280;2022-11-20T04:38:01;2.40;86.00
76211;DHT22;65003;49.518;11.280;2022-11-20T04:40:28;2.50;85.90
76211;DHT22;65003;49.518;11.280;2022-11-20T04:42:54;2.60;85.80
76211;DHT22;65003;49.518;11.280;2022-11-20T04:45:22;2.60;85.30
76211;DHT22;65003;49.518;11.280;2022-11-20T04:47:47;2.70;85.70
76211;DHT22;65003;49.518;11.280;2022-11-20T04:50:14;2.70;84.60
76211;DHT22;65003;49.518;11.280;2022-11-20T04:52:41;2.70;84.60
76211;DHT22;65003;49.518;11.280;2022-11-20T04:55:07;2.70;85.00
76211;DHT22;65003;49.518;11.280;2022-11-20T04:57:34;2.70;85.10
76211;DHT22;65003;49.518;11.280;2022-11-20T05:00:00;2.60;85.40
76211;DHT22;65003;49.518;11.280;2022-11-20T05:02:27;1.50;84.30
76211;DHT22;65003;49.518;11.280;2022-11-20T05:04:54;2.60;85.20
76211;DHT22;65003;49.518;11.280;2022-11-20T05:07:20;2.60;85.40
76211;DHT22;65003;49.518;11.280;2022-11-20T05:09:47;2.70;85.30
76211;DHT22;65003;49.518;11.280;2022-11-20T05:12:13;2.70;85.10
76211;DHT22;65003;49.518;11.280;2022-11-20T05:14:40;2.80;84.70
76211;DHT22;65003;49.518;11.280;2022-11-20T05:17:09;2.90;84.90
76211;DHT22;65003;49.518;11.280;2022-11-20T05:19:33;2.80;84.50
76211;DHT22;65003;49.518;11.280;2022-11-20T05:22:00;2.70;84.80
76211;DHT22;65003;49.518;11.280;2022-11-20T05:24:26;2.70;85.10
76211;DHT22;65003;49.518;11.280;2022-11-20T05:26:53;2.70;85.20
76211;DHT22;65003;49.518;11.280;2022-11-20T05:29:19;2.70;85.10
76211;DHT22;65003;49.518;11.280;2022-11-20T05:31:46;2.70;85.20
76211;DHT22;65003;49.518;11.280;2022-11-20T05:34:13;2.70;85.00
76211;DHT22;65003;49.518;11.280;2022-11-20T05:36:39;2.80;85.20
76211;DHT22;65003;49.518;11.280;2022-11-20T05:39:06;2.70;85.30
76211;DHT22;65003;49.518;11.280;2022-11-20T05:41:32;2.80;85.10
76211;DHT22;65003;49.518;11.280;2022-11-20T05:43:59;2.80;84.90
76211;DHT22;65003;49.518;11.280;2022-11-20T05:46:26;2.80;85.00
76211;DHT22;65003;49.518;11.280;2022-11-20T05:48:52;2.80;85.00
76211;DHT22;65003;49.518;11.280;2022-11-20T05:51:19;2.80;85.20
76211;DHT22;65003;49.518;11.280;2022-11-20T05:53:45;2.70;85.40
76211;DHT22;65003;49.518;11.280;2022-11-20T05:56:14;2.60;85.60
76211;DHT22;65003;49.518;11.280;2022-11-20T05:58:39;2.60;85.70
76211;DHT22;65003;49.518;11.280;2022-11-20T06:01:23;2.60;85.80
76211;DHT22;65003;49.518;11.280;2022-11-20T06:03:48;2.60;86.20
76211;DHT22;65003;49.518;11.280;2022-11-20T06:06:15;2.60;86.00
76211;DHT22;65003;49.518;11.280;2022-11-20T06:08:41;2.60;86.10
76211;DHT22;65003;49.518;11.280;2022-11-20T06:11:09;2.70;86.00
76211;DHT22;65003;49.518;11.280;2022-11-20T06:13:35;2.70;86.00
76211;DHT22;65003;49.518;11.280;2022-11-20T06:16:01;2.70;86.10
76211;DHT22;65003;49.518;11.280;2022-11-20T06:18:28;2.70;86.00
76211;DHT22;65003;49.518;11.280;2022-11-20T06:21:02;2.70;86.00
76211;DHT22;65003;49.518;11.280;2022-11-20T06:23:28;2.80;85.80
76211;DHT22;65003;49.518;11.280;2022-11-20T06:25:54;2.80;86.10
76211;DHT22;65003;49.518;11.280;2022-11-20T06:28:20;2.90;85.60
76211;DHT22;65003;49.518;11.280;2022-11-20T06:30:47;2.80;86.00
76211;DHT22;65003;49.518;11.280;2022-11-20T06:33:14;2.80;86.00
76211;DHT22;65003;49.518;11.280;2022-11-20T06:35:40;2.80;86.00
76211;DHT22;65003;49.518;11.280;2022-11-20T06:38:07;2.80;86.00
76211;DHT22;65003;49.518;11.280;2022-11-20T06:40:33;2.80;86.40
76211;DHT22;65003;49.518;11.280;2022-11-20T06:43:00;2.90;86.10
76211;DHT22;65003;49.518;11.280;2022-11-20T06:45:27;2.90;85.70
76211;DHT22;65003;49.518;11.280;2022-11-20T06:47:53;3.00;85.70
76211;DHT22;65003;49.518;11.280;2022-11-20T06:50:20;3.00;85.70
76211;DHT22;65003;49.518;11.280;2022-11-20T06:52:46;3.00;85.50
76211;DHT22;65003;49.518;11.280;2022-11-20T06:55:13;3.00;85.40
76211;DHT22;65003;49.518;11.280;2022-11-20T06:57:39;3.00;85.70
76211;DHT22;65003;49.518;11.280;2022-11-20T07:00:07;3.10;85.60
76211;DHT22;65003;49.518;11.280;2022-11-20T07:02:33;3.10;86.20
76211;DHT22;65003;49.518;11.280;2022-11-20T07:05:00;3.00;86.00
76211;DHT22;65003;49.518;11.280;2022-11-20T07:07:26;3.10;86.10
76211;DHT22;65003;49.518;11.280;2022-11-20T07:09:53;3.20;85.60
76211;DHT22;65003;49.518;11.280;2022-11-20T07:12:20;3.20;85.40
76211;DHT22;65003;49.518;11.280;2022-11-20T07:14:46;3.20;85.30
76211;DHT22;65003;49.518;11.280;2022-11-20T07:17:13;3.40;85.10
76211;DHT22;65003;49.518;11.280;2022-11-20T07:19:42;3.50;84.70
76211;DHT22;65003;49.518;11.280;2022-11-20T07:22:09;3.70;83.90
76211;DHT22;65003;49.518;11.280;2022-11-20T07:24:36;3.60;83.80
76211;DHT22;65003;49.518;11.280;2022-11-20T07:27:02;3.60;84.10
76211;DHT22;65003;49.518;11.280;2022-11-20T07:29:29;3.50;84.20
76211;DHT22;65003;49.518;11.280;2022-11-20T07:31:55;3.60;84.20
76211;DHT22;65003;49.518;11.280;2022-11-20T07:34:22;3.70;83.70
76211;DHT22;65003;49.518;11.280;2022-11-20T07:36:49;4.00;82.50
76211;DHT22;65003;49.518;11.280;2022-11-20T07:39:15;4.10;82.30
76211;DHT22;65003;49.518;11.280;2022-11-20T07:41:42;4.10;82.10
76211;DHT22;65003;49.518;11.280;2022-11-20T07:44:08;4.10;82.00
76211;DHT22;65003;49.518;11.280;2022-11-20T07:46:35;4.00;82.50
76211;DHT22;65003;49.518;11.280;2022-11-20T07:49:01;3.90;82.90
76211;DHT22;65003;49.518;11.280;2022-11-20T07:51:28;3.90;83.00
76211;DHT22;65003;49.518;11.280;2022-11-20T07:53:55;3.90;83.10
76211;DHT22;65003;49.518;11.280;2022-11-20T07:56:21;3.90;83.40
76211;DHT22;65003;49.518;11.280;2022-11-20T07:58:48;4.00;82.70
76211;DHT22;65003;49.518;11.280;2022-11-20T08:01:14;4.00;82.70
76211;DHT22;65003;49.518;11.280;2022-11-20T08:03:41;3.80;83.70
76211;DHT22;65003;49.518;11.280;2022-11-20T08:06:08;3.80;83.60
76211;DHT22;65003;49.518;11.280;2022-11-20T08:08:34;3.70;83.90
76211;DHT22;65003;49.518;11.280;2022-11-20T08:11:01;3.60;84.40
76211;DHT22;65003;49.518;11.280;2022-11-20T08:13:33;3.80;84.30
76211;DHT22;65003;49.518;11.280;2022-11-20T08:16:05;3.90;83.80
76211;DHT22;65003;49.518;11.280;2022-11-20T08:18:32;3.90;83.50
76211;DHT22;65003;49.518;11.280;2022-11-20T08:21:02;3.90;83.50
76211;DHT22;65003;49.518;11.280;2022-11-20T08:23:28;3.90;84.20
76211;DHT22;65003;49.518;11.280;2022-11-20T08:25:55;3.80;83.90
76211;DHT22;65003;49.518;11.280;2022-11-20T08:28:21;3.80;84.20
76211;DHT22;65003;49.518;11.280;2022-11-20T08:30:49;3.80;84.20
76211;DHT22;65003;49.518;11.280;2022-11-20T08:33:15;3.70;84.50
76211;DHT22;65003;49.518;11.280;2022-11-20T08:35:41;3.70;84.50
76211;DHT22;65003;49.518;11.280;2022-11-20T08:38:08;3.80;84.50
76211;DHT22;65003;49.518;11.280;2022-11-20T08:40:34;3.70;84.60
76211;DHT22;65003;49.518;11.280;2022-11-20T08:43:01;3.70;84.90
76211;DHT22;65003;49.518;11.280;2022-11-20T08:45:27;3.70;84.70
76211;DHT22;65003;49.518;11.280;2022-11-20T08:47:59;3.70;84.70
76211;DHT22;65003;49.518;11.280;2022-11-20T08:50:21;3.80;84.80
76211;DHT22;65003;49.518;11.280;2022-11-20T08:52:47;3.80;84.50
76211;DHT22;65003;49.518;11.280;2022-11-20T08:55:14;3.80;84.30
76211;DHT22;65003;49.518;11.280;2022-11-20T08:57:40;3.80;84.50
76211;DHT22;65003;49.518;11.280;2022-11-20T09:00:07;3.70;84.40
76211;DHT22;65003;49.518;11.280;2022-11-20T09:02:34;3.70;84.70
76211;DHT22;65003;49.518;11.280;2022-11-20T09:05:01;3.80;84.70
76211;DHT22;65003;49.518;11.280;2022-11-20T09:07:27;3.80;84.70
76211;DHT22;65003;49.518;11.280;2022-11-20T09:09:54;3.70;85.00
76211;DHT22;65003;49.518;11.280;2022-11-20T09:12:20;3.70;85.30
76211;DHT22;65003;49.518;11.280;2022-11-20T09:14:47;3.70;85.20
76211;DHT22;65003;49.518;11.280;2022-11-20T09:17:14;3.80;85.00
76211;DHT22;65003;49.518;11.280;2022-11-20T09:19:40;3.80;84.80
76211;DHT22;65003;49.518;11.280;2022-11-20T09:22:07;3.80;85.20
76211;DHT22;65003;49.518;11.280;2022-11-20T09:24:33;3.80;85.20
76211;DHT22;65003;49.518;11.280;2022-11-20T09:27:03;3.80;85.00
76211;DHT22;65003;49.518;11.280;2022-11-20T09:29:29;3.90;84.90
76211;DHT22;65003;49.518;11.280;2022-11-20T09:31:56;3.90;85.00
76211;DHT22;65003;49.518;11.280;2022-11-20T09:34:22;4.00;84.70
76211;DHT22;65003;49.518;11.280;2022-11-20T09:36:49;4.10;84.20
76211;DHT22;65003;49.518;11.280;2022-11-20T09:39:16;4.10;83.70
76211;DHT22;65003;49.518;11.280;2022-11-20T09:45:18;4.00;84.10
76211;DHT22;65003;49.518;11.280;2022-11-20T09:48:34;4.10;83.90
76211;DHT22;65003;49.518;11.280;2022-11-20T09:50:43;4.00;84.30
76211;DHT22;65003;49.518;11.280;2022-11-20T09:55:48;3.90;84.70
76211;DHT22;65003;49.518;11.280;2022-11-20T09:58:24;3.90;84.80
76211;DHT22;65003;49.518;11.280;2022-11-20T10:00:45;4.00;84.80
76211;DHT22;65003;49.518;11.280;2022-11-20T10:03:13;4.00;84.70
76211;DHT22;65003;49.518;11.280;2022-11-20T10:05:45;4.00;84.50
76211;DHT22;65003;49.518;11.280;2022-11-20T10:08:20;4.10;84.40
76211;DHT22;65003;49.518;11.280;2022-11-20T10:10:47;4.20;84.10
76211;DHT22;65003;49.518;11.280;2022-11-20T10:13:20;4.50;83.20
76211;DHT22;65003;49.518;11.280;2022-11-20T10:16:12;4.50;82.60
76211;DHT22;65003;49.518;11.280;2022-11-20T10:18:51;4.60;82.60
76211;DHT22;65003;49.518;11.280;2022-11-20T10:21:34;4.50;82.60
76211;DHT22;65003;49.518;11.280;2022-11-20T10:24:03;4.40;82.90
76211;DHT22;65003;49.518;11.280;2022-11-20T10:26:28;4.40;83.30
76211;DHT22;65003;49.518;11.280;2022-11-20T10:29:08;4.40;83.60
76211;DHT22;65003;49.518;11.280;2022-11-20T10:31:37;4.40;83.60
76211;DHT22;65003;49.518;11.280;2022-11-20T10:34:07;4.50;83.20
76211;DHT22;65003;49.518;11.280;2022-11-20T10:36:34;4.70;83.10
76211;DHT22;65003;49.518;11.280;2022-11-20T10:39:03;4.70;82.70
76211;DHT22;65003;49.518;11.280;2022-11-20T10:41:29;4.80;82.50
76211;DHT22;65003;49.518;11.280;2022-11-20T10:44:04;4.90;81.80
76211;DHT22;65003;49.518;11.280;2022-11-20T10:46:35;5.10;81.40
76211;DHT22;65003;49.518;11.280;2022-11-20T10:48:59;5.10;81.20
76211;DHT22;65003;49.518;11.280;2022-11-20T10:52:38;5.00;81.40
76211;DHT22;65003;49.518;11.280;2022-11-20T10:54:32;5.00;81.40
76211;DHT22;65003;49.518;11.280;2022-11-20T10:56:56;4.90;81.60
76211;DHT22;65003;49.518;11.280;2022-11-20T10:59:41;4.90;81.70
76211;DHT22;65003;49.518;11.280;2022-11-20T11:02:32;5.00;81.70
76211;DHT22;65003;49.518;11.280;2022-11-20T11:04:57;4.90;81.80
76211;DHT22;65003;49.518;11.280;2022-11-20T11:07:40;4.80;82.10
76211;DHT22;65003;49.518;11.280;2022-11-20T11:10:19;4.70;82.50
76211;DHT22;65003;49.518;11.280;2022-11-20T11:12:46;4.60;82.70
76211;DHT22;65003;49.518;11.280;2022-11-20T11:15:24;4.50;83.20
76211;DHT22;65003;49.518;11.280;2022-11-20T11:17:46;4.60;83.30
76211;DHT22;65003;49.518;11.280;2022-11-20T11:20:18;4.70;83.10
76211;DHT22;65003;49.518;11.280;2022-11-20T11:22:55;4.80;82.90
76211;DHT22;65003;49.518;11.280;2022-11-20T11:25:25;4.90;82.70
76211;DHT22;65003;49.518;11.280;2022-11-20T11:27:50;5.00;82.80
76211;DHT22;65003;49.518;11.280;2022-11-20T11:30:17;5.00;82.30
76211;DHT22;65003;49.518;11.280;2022-11-20T11:32:43;5.00;82.40
76211;DHT22;65003;49.518;11.280;2022-11-20T11:35:19;4.60;83.00
76211;DHT22;65003;49.518;11.280;2022-11-20T11:37:44;4.30;84.00
76211;DHT22;65003;49.518;11.280;2022-11-20T11:40:11;4.20;84.40
76211;DHT22;65003;49.518;11.280;2022-11-20T11:42:43;4.00;84.90
76211;DHT22;65003;49.518;11.280;2022-11-20T11:45:11;4.10;85.20
76211;DHT22;65003;49.518;11.280;2022-11-20T11:47:45;4.10;85.00
76211;DHT22;65003;49.518;11.280;2022-11-20T11:50:20;4.30;85.10
76211;DHT22;65003;49.518;11.280;2022-11-20T11:53:08;4.70;84.10
76211;DHT22;65003;49.518;11.280;2022-11-20T11:55:36;5.00;83.50
76211;DHT22;65003;49.518;11.280;2022-11-20T11:58:14;5.20;82.50
76211;DHT22;65003;49.518;11.280;2022-11-20T12:00:39;5.30;81.90
76211;DHT22;65003;49.518;11.280;2022-11-20T12:03:12;5.40;81.40
76211;DHT22;65003;49.518;11.280;2022-11-20T12:05:41;5.70;79.80
76211;DHT22;65003;49.518;11.280;2022-11-20T12:08:15;6.00;78.50
76211;DHT22;65003;49.518;11.280;2022-11-20T12:10:50;6.00;77.90
76211;DHT22;65003;49.518;11.280;2022-11-20T12:13:20;6.20;77.60
76211;DHT22;65003;49.518;11.280;2022-11-20T12:15:44;6.50;76.90
76211;DHT22;65003;49.518;11.280;2022-11-20T12:18:15;6.60;76.40
76211;DHT22;65003;49.518;11.280;2022-11-20T12:20:42;6.70;76.10
76211;DHT22;65003;49.518;11.280;2022-11-20T12:23:09;6.80;75.60
76211;DHT22;65003;49.518;11.280;2022-11-20T12:25:35;6.80;75.70
76211;DHT22;65003;49.518;11.280;2022-11-20T12:30:37;6.50;76.60
76211;DHT22;65003;49.518;11.280;2022-11-20T12:33:17;6.40;77.30
76211;DHT22;65003;49.518;11.280;2022-11-20T12:36:01;6.20;78.10
76211;DHT22;65003;49.518;11.280;2022-11-20T12:41:51;6.00;79.40
76211;DHT22;65003;49.518;11.280;2022-11-20T12:49:42;4.80;79.20
76211;DHT22;65003;49.518;11.280;2022-11-20T12:52:34;5.80;80.20
76211;DHT22;65003;49.518;11.280;2022-11-20T12:55:08;5.90;81.00
76211;DHT22;65003;49.518;11.280;2022-11-20T12:57:39;5.80;80.30
76211;DHT22;65003;49.518;11.280;2022-11-20T13:00:11;5.80;80.60
76211;DHT22;65003;49.518;11.280;2022-11-20T13:02:58;5.80;80.80
76211;DHT22;65003;49.518;11.280;2022-11-20T13:05:31;5.80;80.70
76211;DHT22;65003;49.518;11.280;2022-11-20T13:07:53;5.80;80.60
76211;DHT22;65003;49.518;11.280;2022-11-20T13:10:30;5.70;80.70
76211;DHT22;65003;49.518;11.280;2022-11-20T13:13:07;5.80;80.80
76211;DHT22;65003;49.518;11.280;2022-11-20T13:15:36;5.70;80.60
76211;DHT22;65003;49.518;11.280;2022-11-20T13:18:01;5.60;81.30
76211;DHT22;65003;49.518;11.280;2022-11-20T13:20:27;5.60;81.10
76211;DHT22;65003;49.518;11.280;2022-11-20T13:22:54;5.60;81.20
76211;DHT22;65003;49.518;11.280;2022-11-20T13:25:29;5.50;81.40
76211;DHT22;65003;49.518;11.280;2022-11-20T13:27:57;5.40;82.00
76211;DHT22;65003;49.518;11.280;2022-11-20T13:30:24;5.40;81.80
76211;DHT22;65003;49.518;11.280;2022-11-20T13:32:58;5.40;82.00
76211;DHT22;65003;49.518;11.280;2022-11-20T13:35:32;5.40;82.10
76211;DHT22;65003;49.518;11.280;2022-11-20T13:40:50;5.40;81.90
76211;DHT22;65003;49.518;11.280;2022-11-20T13:43:28;5.50;81.90
76211;DHT22;65003;49.518;11.280;2022-11-20T13:46:04;5.50;81.70
76211;DHT22;65003;49.518;11.280;2022-11-20T13:48:33;5.50;81.70
76211;DHT22;65003;49.518;11.280;2022-11-20T13:51:22;5.60;81.60
76211;DHT22;65003;49.518;11.280;2022-11-20T13:53:47;5.60;81.50
76211;DHT22;65003;49.518;11.280;2022-11-20T13:56:38;6.60;82.70
76211;DHT22;65003;49.518;11.280;2022-11-20T13:59:38;4.40;81.60
76211;DHT22;65003;49.518;11.280;2022-11-20T14:01:44;5.50;82.50
76211;DHT22;65003;49.518;11.280;2022-11-20T14:04:14;5.50;82.30
76211;DHT22;65003;49.518;11.280;2022-11-20T14:06:42;5.50;82.30
76211;DHT22;65003;49.518;11.280;2022-11-20T14:09:12;5.40;82.60
76211;DHT22;65003;49.518;11.280;2022-11-20T14:11:45;5.40;83.10
76211;DHT22;65003;49.518;11.280;2022-11-20T14:14:13;5.40;83.30
76211;DHT22;65003;49.518;11.280;2022-11-20T14:16:37;5.40;83.00
76211;DHT22;65003;49.518;11.280;2022-11-20T14:21:42;5.30;83.00
76211;DHT22;65003;49.518;11.280;2022-11-20T14:24:10;5.70;83.90
76211;DHT22;65003;49.518;11.280;2022-11-20T14:26:35;5.10;84.00
76211;DHT22;65003;49.518;11.280;2022-11-20T14:29:01;5.10;84.20
76211;DHT22;65003;49.518;11.280;2022-11-20T14:31:28;5.10;84.00
76211;DHT22;65003;49.518;11.280;2022-11-20T14:33:55;5.10;84.10
76211;DHT22;65003;49.518;11.280;2022-11-20T14:36:22;5.20;83.90
76211;DHT22;65003;49.518;11.280;2022-11-20T14:38:48;5.30;83.60
76211;DHT22;65003;49.518;11.280;2022-11-20T14:41:20;5.20;83.90
76211;DHT22;65003;49.518;11.280;2022-11-20T14:43:46;5.30;83.90
76211;DHT22;65003;49.518;11.280;2022-11-20T14:46:12;5.30;83.50
76211;DHT22;65003;49.518;11.280;2022-11-20T14:48:43;5.20;83.90
76211;DHT22;65003;49.518;11.280;2022-11-20T14:51:10;5.20;83.90
76211;DHT22;65003;49.518;11.280;2022-11-20T14:53:35;5.20;83.90
76211;DHT22;65003;49.518;11.280;2022-11-20T14:56:02;5.30;83.40
76211;DHT22;65003;49.518;11.280;2022-11-20T14:58:29;5.30;83.60
76211;DHT22;65003;49.518;11.280;2022-11-20T15:00:59;5.20;83.70
76211;DHT22;65003;49.518;11.280;2022-11-20T15:03:32;6.20;84.40
76211;DHT22;65003;49.518;11.280;2022-11-20T15:05:57;5.30;83.50
76211;DHT22;65003;49.518;11.280;2022-11-20T15:08:24;5.40;83.70
76211;DHT22;65003;49.518;11.280;2022-11-20T15:10:51;5.40;83.70
76211;DHT22;65003;49.518;11.280;2022-11-20T15:13:29;5.30;83.80
76211;DHT22;65003;49.518;11.280;2022-11-20T15:15:54;5.30;83.80
76211;DHT22;65003;49.518;11.280;2022-11-20T15:18:29;5.30;84.10
76211;DHT22;65003;49.518;11.280;2022-11-20T15:20:56;5.30;84.00
76211;DHT22;65003;49.518;11.280;2022-11-20T15:23:23;5.30;84.10
76211;DHT22;65003;49.518;11.280;2022-11-20T15:25:49;5.20;84.40
76211;DHT22;65003;49.518;11.280;2022-11-20T15:28:19;5.10;84.60
76211;DHT22;65003;49.518;11.280;2022-11-20T15:30:46;5.20;84.40
76211;DHT22;65003;49.518;11.280;2022-11-20T15:33:12;5.20;84.00
76211;DHT22;65003;49.518;11.280;2022-11-20T15:35:38;5.20;83.90
76211;DHT22;65003;49.518;11.280;2022-11-20T15:38:05;5.30;84.20
76211;DHT22;65003;49.518;11.280;2022-11-20T15:40:31;5.20;84.40
76211;DHT22;65003;49.518;11.280;2022-11-20T15:42:58;5.20;84.70
76211;DHT22;65003;49.518;11.280;2022-11-20T15:45:44;5.20;84.80
76211;DHT22;65003;49.518;11.280;2022-11-20T15:48:15;5.30;84.30
76211;DHT22;65003;49.518;11.280;2022-11-20T15:51:20;5.20;84.50
76211;DHT22;65003;49.518;11.280;2022-11-20T15:53:25;5.30;84.70
76211;DHT22;65003;49.518;11.280;2022-11-20T15:55:51;5.20;84.70
76211;DHT22;65003;49.518;11.280;2022-11-20T15:58:18;5.30;84.40
76211;DHT22;65003;49.518;11.280;2022-11-20T16:00:45;5.40;84.20